sensor_id;sensor_type;location;lat;lon;timestamp;P1;durP1;ratioP1;P2;durP2;ratioP2
8327;SDS011;4201;48.754;8.864;2023-05-14T00:18:47;17.93;;;15.97;;
8327;SDS011;4201;48.754;8.864;2023-05-14T00:21:14;18.33;;;16.50;;
8327;SDS011;4201;48.754;8.864;2023-05-14T00:23:41;15.70;;;14.03;;
8327;SDS011;4201;48.754;8.864;2023-05-14T00:26:07;18.73;;;16.73;;
8327;SDS011;4201;48.754;8.864;2023-05-14T00:28:33;22.20;;;18.27;;
8327;SDS011;4201;48.754;8.864;2023-05-14T00:30:59;22.20;;;16.30;;
8327;SDS011;4201;48.754;8.864;2023-05-14T00:33:26;18.20;;;16.30;;
8327;SDS011;4201;48.754;8.864;2023-05-14T00:35:53;18.37;;;16.47;;
8327;SDS011;4201;48.754;8.864;2023-05-14T00:38:19;17.00;;;15.23;;
8327;SDS011;4201;48.754;8.864;2023-05-14T00:40:48;20.00;;;16.83;;
8327;SDS011;4201;48.754;8.864;2023-05-14T00:43:15;18.10;;;16.20;;
8327;SDS011;4201;48.754;8.864;2023-05-14T00:45:42;21.07;;;15.67;;
8327;SDS011;4201;48.754;8.864;2023-05-14T00:48:08;19.13;;;17.13;;
8327;SDS011;4201;48.754;8.864;2023-05-14T00:50:34;18.00;;;15.60;;
8327;SDS011;4201;48.754;8.864;2023-05-14T00:53:02;16.93;;;15.13;;
8327;SDS011;4201;48.754;8.864;2023-05-14T00:55:34;21.23;;;18.23;;
8327;SDS011;4201;48.754;8.864;2023-05-14T00:58:00;20.93;;;17.77;;
8327;SDS011;4201;48.754;8.864;2023-05-14T01:00:27;18.50;;;15.97;;
8327;SDS011;4201;48.754;8.864;2023-05-14T01:02:54;17.40;;;14.93;;
8327;SDS011;4201;48.754;8.864;2023-05-14T01:05:20;16.70;;;14.90;;
8327;SDS011;4201;48.754;8.864;2023-05-14T01:07:48;19.23;;;14.70;;
8327;SDS011;4201;48.754;8.864;2023-05-14T01:10:21;15.60;;;13.83;;
8327;SDS011;4201;48.754;8.864;2023-05-14T01:12:51;16.33;;;14.63;;
8327;SDS011;4201;48.754;8.864;2023-05-14T01:15:20;19.30;;;16.07;;
8327;SDS011;4201;48.754;8.864;2023-05-14T01:17:47;16.73;;;14.83;;
8327;SDS011;4201;48.754;8.864;2023-05-14T01:20:15;18.13;;;16.10;;
8327;SDS011;4201;48.754;8.864;2023-05-14T01:22:43;14.83;;;13.33;;
8327;SDS011;4201;48.754;8.864;2023-05-14T01:25:09;15.77;;;14.13;;
8327;SDS011;4201;48.754;8.864;2023-05-14T01:27:37;17.20;;;15.20;;
8327;SDS011;4201;48.754;8.864;2023-05-14T01:30:08;15.17;;;13.60;;
8327;SDS011;4201;48.754;8.864;2023-05-14T01:32:38;17.07;;;15.13;;
8327;SDS011;4201;48.754;8.864;2023-05-14T01:35:05;17.83;;;15.40;;
8327;SDS011;4201;48.754;8.864;2023-05-14T01:37:33;16.27;;;14.50;;
8327;SDS011;4201;48.754;8.864;2023-05-14T01:40:01;20.20;;;16.20;;
8327;SDS011;4201;48.754;8.864;2023-05-14T01:42:27;16.57;;;14.80;;
8327;SDS011;4201;48.754;8.864;2023-05-14T01:44:54;22.10;;;18.63;;
8327;SDS011;4201;48.754;8.864;2023-05-14T01:47:20;22.57;;;18.30;;
8327;SDS011;4201;48.754;8.864;2023-05-14T01:49:46;18.93;;;16.67;;
8327;SDS011;4201;48.754;8.864;2023-05-14T01:52:13;24.57;;;20.17;;
8327;SDS011;4201;48.754;8.864;2023-05-14T01:54:39;100.60;;;23.63;;
8327;SDS011;4201;48.754;8.864;2023-05-14T01:57:07;36.73;;;18.00;;
8327;SDS011;4201;48.754;8.864;2023-05-14T01:59:33;30.17;;;20.90;;
8327;SDS011;4201;48.754;8.864;2023-05-14T02:01:59;20.60;;;16.83;;
8327;SDS011;4201;48.754;8.864;2023-05-14T02:04:25;24.57;;;17.60;;
8327;SDS011;4201;48.754;8.864;2023-05-14T02:06:52;16.60;;;14.63;;
8327;SDS011;4201;48.754;8.864;2023-05-14T02:09:18;19.03;;;15.80;;
8327;SDS011;4201;48.754;8.864;2023-05-14T02:11:44;20.07;;;17.07;;
8327;SDS011;4201;48.754;8.864;2023-05-14T02:14:12;19.70;;;17.17;;
8327;SDS011;4201;48.754;8.864;2023-05-14T02:16:39;19.03;;;16.63;;
8327;SDS011;4201;48.754;8.864;2023-05-14T02:19:05;16.30;;;14.60;;
8327;SDS011;4201;48.754;8.864;2023-05-14T02:21:31;16.17;;;14.00;;
8327;SDS011;4201;48.754;8.864;2023-05-14T02:23:58;18.93;;;15.87;;
8327;SDS011;4201;48.754;8.864;2023-05-14T02:26:24;18.97;;;16.17;;
8327;SDS011;4201;48.754;8.864;2023-05-14T02:28:50;17.50;;;15.70;;
8327;SDS011;4201;48.754;8.864;2023-05-14T02:31:18;18.33;;;15.60;;
8327;SDS011;4201;48.754;8.864;2023-05-14T02:33:44;20.67;;;18.47;;
8327;SDS011;4201;48.754;8.864;2023-05-14T02:36:10;17.30;;;15.60;;
8327;SDS011;4201;48.754;8.864;2023-05-14T02:38:37;19.63;;;15.73;;
8327;SDS011;4201;48.754;8.864;2023-05-14T02:41:03;17.77;;;14.70;;
8327;SDS011;4201;48.754;8.864;2023-05-14T02:43:29;17.13;;;14.80;;
8327;SDS011;4201;48.754;8.864;2023-05-14T02:45:56;18.10;;;14.70;;
8327;SDS011;4201;48.754;8.864;2023-05-14T02:48:23;18.27;;;15.57;;
8327;SDS011;4201;48.754;8.864;2023-05-14T02:50:50;18.50;;;16.50;;
8327;SDS011;4201;48.754;8.864;2023-05-14T02:53:16;19.23;;;15.97;;
8327;SDS011;4201;48.754;8.864;2023-05-14T02:55:42;17.63;;;15.60;;
8327;SDS011;4201;48.754;8.864;2023-05-14T02:58:08;17.73;;;15.90;;
8327;SDS011;4201;48.754;8.864;2023-05-14T03:00:35;18.60;;;14.90;;
8327;SDS011;4201;48.754;8.864;2023-05-14T03:03:01;18.17;;;16.20;;
8327;SDS011;4201;48.754;8.864;2023-05-14T03:05:29;23.30;;;16.30;;
8327;SDS011;4201;48.754;8.864;2023-05-14T03:07:55;15.97;;;14.27;;
8327;SDS011;4201;48.754;8.864;2023-05-14T03:10:21;18.60;;;15.97;;
8327;SDS011;4201;48.754;8.864;2023-05-14T03:12:47;16.83;;;15.03;;
8327;SDS011;4201;48.754;8.864;2023-05-14T03:15:14;17.40;;;15.30;;
8327;SDS011;4201;48.754;8.864;2023-05-14T03:17:40;17.03;;;14.13;;
8327;SDS011;4201;48.754;8.864;2023-05-14T03:20:06;17.40;;;15.30;;
8327;SDS011;4201;48.754;8.864;2023-05-14T03:22:34;18.60;;;16.57;;
8327;SDS011;4201;48.754;8.864;2023-05-14T03:25:00;19.67;;;16.00;;
8327;SDS011;4201;48.754;8.864;2023-05-14T03:27:26;17.00;;;15.20;;
8327;SDS011;4201;48.754;8.864;2023-05-14T03:29:53;18.23;;;16.20;;
8327;SDS011;4201;48.754;8.864;2023-05-14T03:32:19;18.70;;;15.90;;
8327;SDS011;4201;48.754;8.864;2023-05-14T03:34:45;19.80;;;16.50;;
8327;SDS011;4201;48.754;8.864;2023-05-14T03:37:12;16.03;;;13.80;;
8327;SDS011;4201;48.754;8.864;2023-05-14T03:39:39;24.17;;;17.83;;
8327;SDS011;4201;48.754;8.864;2023-05-14T03:42:06;22.20;;;17.70;;
8327;SDS011;4201;48.754;8.864;2023-05-14T03:44:32;19.23;;;16.40;;
8327;SDS011;4201;48.754;8.864;2023-05-14T03:46:58;15.47;;;13.87;;
8327;SDS011;4201;48.754;8.864;2023-05-14T03:49:24;22.10;;;17.10;;
8327;SDS011;4201;48.754;8.864;2023-05-14T03:51:51;15.90;;;14.20;;
8327;SDS011;4201;48.754;8.864;2023-05-14T03:54:17;17.10;;;14.90;;
8327;SDS011;4201;48.754;8.864;2023-05-14T03:56:44;16.43;;;14.57;;
8327;SDS011;4201;48.754;8.864;2023-05-14T03:59:11;17.20;;;14.77;;
8327;SDS011;4201;48.754;8.864;2023-05-14T04:01:37;16.87;;;15.03;;
8327;SDS011;4201;48.754;8.864;2023-05-14T04:04:04;16.40;;;14.40;;
8327;SDS011;4201;48.754;8.864;2023-05-14T04:06:31;18.27;;;14.70;;
8327;SDS011;4201;48.754;8.864;2023-05-14T04:08:58;16.70;;;14.97;;
8327;SDS011;4201;48.754;8.864;2023-05-14T04:11:24;22.10;;;14.60;;
8327;SDS011;4201;48.754;8.864;2023-05-14T04:13:52;21.10;;;15.40;;
8327;SDS011;4201;48.754;8.864;2023-05-14T04:16:18;18.00;;;15.40;;
8327;SDS011;4201;48.754;8.864;2023-05-14T04:18:44;19.23;;;17.03;;
8327;SDS011;4201;48.754;8.864;2023-05-14T04:21:10;18.27;;;14.93;;
8327;SDS011;4201;48.754;8.864;2023-05-14T04:23:37;18.13;;;16.23;;
8327;SDS011;4201;48.754;8.864;2023-05-14T04:26:03;17.30;;;13.97;;
8327;SDS011;4201;48.754;8.864;2023-05-14T04:28:30;21.83;;;16.97;;
8327;SDS011;4201;48.754;8.864;2023-05-14T04:30:58;18.17;;;16.20;;
8327;SDS011;4201;48.754;8.864;2023-05-14T04:33:24;20.03;;;15.50;;
8327;SDS011;4201;48.754;8.864;2023-05-14T04:35:50;17.87;;;16.00;;
8327;SDS011;4201;48.754;8.864;2023-05-14T04:38:17;16.77;;;15.07;;
8327;SDS011;4201;48.754;8.864;2023-05-14T04:40:43;15.47;;;13.77;;
8327;SDS011;4201;48.754;8.864;2023-05-14T04:43:10;17.90;;;14.90;;
8327;SDS011;4201;48.754;8.864;2023-05-14T04:45:36;17.03;;;15.00;;
8327;SDS011;4201;48.754;8.864;2023-05-14T04:48:04;17.97;;;15.30;;
8327;SDS011;4201;48.754;8.864;2023-05-14T04:50:31;16.90;;;14.63;;
8327;SDS011;4201;48.754;8.864;2023-05-14T04:52:57;17.40;;;15.60;;
8327;SDS011;4201;48.754;8.864;2023-05-14T04:55:24;15.73;;;14.13;;
8327;SDS011;4201;48.754;8.864;2023-05-14T04:57:50;17.33;;;15.07;;
8327;SDS011;4201;48.754;8.864;2023-05-14T05:00:17;21.07;;;15.03;;
8327;SDS011;4201;48.754;8.864;2023-05-14T05:02:45;16.30;;;14.60;;
8327;SDS011;4201;48.754;8.864;2023-05-14T05:05:13;24.43;;;17.37;;
8327;SDS011;4201;48.754;8.864;2023-05-14T05:07:39;19.83;;;16.33;;
8327;SDS011;4201;48.754;8.864;2023-05-14T05:10:06;19.70;;;17.60;;
8327;SDS011;4201;48.754;8.864;2023-05-14T05:12:32;22.43;;;17.63;;
8327;SDS011;4201;48.754;8.864;2023-05-14T05:14:59;18.90;;;16.17;;
8327;SDS011;4201;48.754;8.864;2023-05-14T05:17:25;21.77;;;16.10;;
8327;SDS011;4201;48.754;8.864;2023-05-14T05:19:52;20.10;;;16.77;;
8327;SDS011;4201;48.754;8.864;2023-05-14T05:22:19;23.33;;;17.23;;
8327;SDS011;4201;48.754;8.864;2023-05-14T05:24:45;20.53;;;14.93;;
8327;SDS011;4201;48.754;8.864;2023-05-14T05:27:12;19.07;;;16.30;;
8327;SDS011;4201;48.754;8.864;2023-05-14T05:29:38;20.00;;;14.57;;
8327;SDS011;4201;48.754;8.864;2023-05-14T05:32:05;18.77;;;16.10;;
8327;SDS011;4201;48.754;8.864;2023-05-14T05:34:31;17.97;;;15.57;;
8327;SDS011;4201;48.754;8.864;2023-05-14T05:36:58;19.60;;;15.53;;
8327;SDS011;4201;48.754;8.864;2023-05-14T05:39:25;19.33;;;15.23;;
8327;SDS011;4201;48.754;8.864;2023-05-14T05:41:52;17.37;;;14.90;;
8327;SDS011;4201;48.754;8.864;2023-05-14T05:44:18;19.27;;;16.50;;
8327;SDS011;4201;48.754;8.864;2023-05-14T05:46:44;15.80;;;14.10;;
8327;SDS011;4201;48.754;8.864;2023-05-14T05:49:14;19.90;;;15.60;;
8327;SDS011;4201;48.754;8.864;2023-05-14T05:51:40;19.50;;;15.37;;
8327;SDS011;4201;48.754;8.864;2023-05-14T05:54:06;17.23;;;15.30;;
8327;SDS011;4201;48.754;8.864;2023-05-14T05:56:34;17.20;;;14.60;;
8327;SDS011;4201;48.754;8.864;2023-05-14T05:59:00;15.67;;;13.50;;
8327;SDS011;4201;48.754;8.864;2023-05-14T06:01:28;15.90;;;14.20;;
8327;SDS011;4201;48.754;8.864;2023-05-14T06:03:54;19.43;;;15.03;;
8327;SDS011;4201;48.754;8.864;2023-05-14T06:06:20;15.73;;;13.63;;
8327;SDS011;4201;48.754;8.864;2023-05-14T06:08:47;18.77;;;12.90;;
8327;SDS011;4201;48.754;8.864;2023-05-14T06:11:13;20.33;;;14.63;;
8327;SDS011;4201;48.754;8.864;2023-05-14T12:00:54;8.13;;;7.10;;
8327;SDS011;4201;48.754;8.864;2023-05-14T12:03:20;7.87;;;6.73;;
8327;SDS011;4201;48.754;8.864;2023-05-14T12:05:55;10.37;;;8.67;;
8327;SDS011;4201;48.754;8.864;2023-05-14T12:08:22;12.47;;;8.23;;
8327;SDS011;4201;48.754;8.864;2023-05-14T12:10:51;8.63;;;7.60;;
8327;SDS011;4201;48.754;8.864;2023-05-14T12:13:17;8.67;;;7.50;;
8327;SDS011;4201;48.754;8.864;2023-05-14T12:15:44;9.40;;;8.20;;
8327;SDS011;4201;48.754;8.864;2023-05-14T12:18:13;10.47;;;9.37;;
8327;SDS011;4201;48.754;8.864;2023-05-14T12:20:44;8.53;;;7.73;;
8327;SDS011;4201;48.754;8.864;2023-05-14T12:23:10;8.83;;;7.93;;
8327;SDS011;4201;48.754;8.864;2023-05-14T12:25:37;10.30;;;8.20;;
8327;SDS011;4201;48.754;8.864;2023-05-14T12:28:12;15.33;;;8.03;;
8327;SDS011;4201;48.754;8.864;2023-05-14T12:30:38;10.20;;;8.70;;
8327;SDS011;4201;48.754;8.864;2023-05-14T12:33:05;9.40;;;8.40;;
8327;SDS011;4201;48.754;8.864;2023-05-14T12:35:32;9.07;;;8.00;;
8327;SDS011;4201;48.754;8.864;2023-05-14T12:38:00;11.50;;;9.43;;
8327;SDS011;4201;48.754;8.864;2023-05-14T12:40:26;9.10;;;7.20;;
8327;SDS011;4201;48.754;8.864;2023-05-14T12:42:53;9.20;;;7.47;;
8327;SDS011;4201;48.754;8.864;2023-05-14T12:45:19;8.33;;;7.13;;
8327;SDS011;4201;48.754;8.864;2023-05-14T12:47:45;8.83;;;7.30;;
8327;SDS011;4201;48.754;8.864;2023-05-14T12:50:11;7.70;;;6.63;;
8327;SDS011;4201;48.754;8.864;2023-05-14T12:52:39;9.20;;;7.70;;
8327;SDS011;4201;48.754;8.864;2023-05-14T12:55:05;8.77;;;7.60;;
8327;SDS011;4201;48.754;8.864;2023-05-14T12:57:32;8.80;;;7.13;;
8327;SDS011;4201;48.754;8.864;2023-05-14T12:59:59;7.90;;;7.00;;
8327;SDS011;4201;48.754;8.864;2023-05-14T13:02:25;8.77;;;7.23;;
8327;SDS011;4201;48.754;8.864;2023-05-14T13:04:51;8.30;;;7.50;;
8327;SDS011;4201;48.754;8.864;2023-05-14T13:07:17;9.00;;;7.57;;
8327;SDS011;4201;48.754;8.864;2023-05-14T13:09:45;8.20;;;7.30;;
8327;SDS011;4201;48.754;8.864;2023-05-14T13:12:11;7.93;;;6.80;;
8327;SDS011;4201;48.754;8.864;2023-05-14T13:14:37;8.43;;;7.63;;
8327;SDS011;4201;48.754;8.864;2023-05-14T13:17:04;8.67;;;7.67;;
8327;SDS011;4201;48.754;8.864;2023-05-14T13:19:31;8.17;;;7.17;;
8327;SDS011;4201;48.754;8.864;2023-05-14T13:21:58;7.90;;;6.97;;
8327;SDS011;4201;48.754;8.864;2023-05-14T13:24:24;8.37;;;7.50;;
8327;SDS011;4201;48.754;8.864;2023-05-14T13:26:51;9.17;;;8.20;;
8327;SDS011;4201;48.754;8.864;2023-05-14T13:29:18;10.43;;;8.00;;
8327;SDS011;4201;48.754;8.864;2023-05-14T13:31:44;12.07;;;8.60;;
8327;SDS011;4201;48.754;8.864;2023-05-14T13:34:10;9.87;;;8.87;;
8327;SDS011;4201;48.754;8.864;2023-05-14T13:36:37;8.60;;;7.10;;
8327;SDS011;4201;48.754;8.864;2023-05-14T13:39:04;9.70;;;8.00;;
8327;SDS011;4201;48.754;8.864;2023-05-14T13:41:30;9.80;;;6.80;;
8327;SDS011;4201;48.754;8.864;2023-05-14T13:44:00;10.83;;;6.43;;
8327;SDS011;4201;48.754;8.864;2023-05-14T13:46:26;7.27;;;6.20;;
8327;SDS011;4201;48.754;8.864;2023-05-14T13:48:52;7.47;;;6.20;;
8327;SDS011;4201;48.754;8.864;2023-05-14T13:51:18;6.57;;;5.93;;
8327;SDS011;4201;48.754;8.864;2023-05-14T13:53:45;7.37;;;5.53;;
8327;SDS011;4201;48.754;8.864;2023-05-14T13:56:11;7.23;;;5.43;;
8327;SDS011;4201;48.754;8.864;2023-05-14T13:58:37;8.17;;;7.10;;
8327;SDS011;4201;48.754;8.864;2023-05-14T14:01:05;6.50;;;5.80;;
8327;SDS011;4201;48.754;8.864;2023-05-14T14:03:31;7.17;;;6.47;;
8327;SDS011;4201;48.754;8.864;2023-05-14T14:05:57;7.83;;;6.60;;
8327;SDS011;4201;48.754;8.864;2023-05-14T14:08:24;8.23;;;7.10;;
8327;SDS011;4201;48.754;8.864;2023-05-14T14:10:50;10.90;;;7.50;;
8327;SDS011;4201;48.754;8.864;2023-05-14T14:13:18;9.07;;;6.63;;
8327;SDS011;4201;48.754;8.864;2023-05-14T14:15:45;7.10;;;6.40;;
8327;SDS011;4201;48.754;8.864;2023-05-14T14:18:12;8.53;;;6.93;;
8327;SDS011;4201;48.754;8.864;2023-05-14T14:20:39;8.37;;;6.53;;
8327;SDS011;4201;48.754;8.864;2023-05-14T14:23:05;9.10;;;6.67;;
8327;SDS011;4201;48.754;8.864;2023-05-14T14:25:31;8.90;;;8.00;;
8327;SDS011;4201;48.754;8.864;2023-05-14T14:27:58;8.50;;;7.50;;
8327;SDS011;4201;48.754;8.864;2023-05-14T14:30:25;9.77;;;8.80;;
8327;SDS011;4201;48.754;8.864;2023-05-14T14:32:51;8.60;;;7.53;;
8327;SDS011;4201;48.754;8.864;2023-05-14T14:35:18;9.70;;;6.97;;
8327;SDS011;4201;48.754;8.864;2023-05-14T14:37:45;7.83;;;7.03;;
8327;SDS011;4201;48.754;8.864;2023-05-14T14:40:14;9.23;;;7.37;;
8327;SDS011;4201;48.754;8.864;2023-05-14T14:42:40;8.90;;;6.80;;
8327;SDS011;4201;48.754;8.864;2023-05-14T14:45:07;9.10;;;6.70;;
8327;SDS011;4201;48.754;8.864;2023-05-14T14:47:34;9.87;;;6.23;;
8327;SDS011;4201;48.754;8.864;2023-05-14T14:50:00;7.00;;;6.27;;
8327;SDS011;4201;48.754;8.864;2023-05-14T14:52:28;9.50;;;6.73;;
8327;SDS011;4201;48.754;8.864;2023-05-14T14:54:54;8.83;;;5.93;;
8327;SDS011;4201;48.754;8.864;2023-05-14T14:57:20;7.90;;;6.10;;
8327;SDS011;4201;48.754;8.864;2023-05-14T14:59:47;7.97;;;6.47;;
8327;SDS011;4201;48.754;8.864;2023-05-14T15:02:13;7.87;;;6.53;;
8327;SDS011;4201;48.754;8.864;2023-05-14T15:04:39;7.03;;;6.33;;
8327;SDS011;4201;48.754;8.864;2023-05-14T15:07:05;8.10;;;7.10;;
8327;SDS011;4201;48.754;8.864;2023-05-14T15:09:33;8.30;;;6.20;;
8327;SDS011;4201;48.754;8.864;2023-05-14T15:11:59;6.13;;;5.53;;
8327;SDS011;4201;48.754;8.864;2023-05-14T15:14:26;8.60;;;6.10;;
8327;SDS011;4201;48.754;8.864;2023-05-14T15:16:52;7.80;;;6.20;;
8327;SDS011;4201;48.754;8.864;2023-05-14T15:19:18;6.43;;;5.63;;
8327;SDS011;4201;48.754;8.864;2023-05-14T15:21:44;7.47;;;6.57;;
8327;SDS011;4201;48.754;8.864;2023-05-14T15:24:11;7.00;;;6.17;;
8327;SDS011;4201;48.754;8.864;2023-05-14T15:26:39;7.60;;;5.83;;
8327;SDS011;4201;48.754;8.864;2023-05-14T15:29:05;6.70;;;5.33;;
8327;SDS011;4201;48.754;8.864;2023-05-14T15:31:31;8.03;;;5.93;;
8327;SDS011;4201;48.754;8.864;2023-05-14T15:33:58;6.77;;;5.27;;
8327;SDS011;4201;48.754;8.864;2023-05-14T15:36:24;5.90;;;5.30;;
8327;SDS011;4201;48.754;8.864;2023-05-14T15:38:51;5.50;;;4.77;;
8327;SDS011;4201;48.754;8.864;2023-05-14T15:41:17;5.27;;;4.63;;
8327;SDS011;4201;48.754;8.864;2023-05-14T15:43:44;7.60;;;4.70;;
8327;SDS011;4201;48.754;8.864;2023-05-14T15:46:11;6.13;;;4.63;;
8327;SDS011;4201;48.754;8.864;2023-05-14T15:48:37;6.03;;;4.93;;
8327;SDS011;4201;48.754;8.864;2023-05-14T15:51:03;6.13;;;4.70;;
8327;SDS011;4201;48.754;8.864;2023-05-14T15:53:30;5.07;;;4.27;;
8327;SDS011;4201;48.754;8.864;2023-05-14T15:55:56;4.77;;;3.93;;
8327;SDS011;4201;48.754;8.864;2023-05-14T15:58:22;5.30;;;4.40;;
8327;SDS011;4201;48.754;8.864;2023-05-14T16:00:50;5.30;;;3.77;;
8327;SDS011;4201;48.754;8.864;2023-05-14T16:03:16;6.00;;;4.73;;
8327;SDS011;4201;48.754;8.864;2023-05-14T16:05:43;7.37;;;4.80;;
8327;SDS011;4201;48.754;8.864;2023-05-14T16:08:10;5.50;;;4.60;;
8327;SDS011;4201;48.754;8.864;2023-05-14T16:10:36;5.90;;;4.73;;
8327;SDS011;4201;48.754;8.864;2023-05-14T16:13:02;4.53;;;4.07;;
8327;SDS011;4201;48.754;8.864;2023-05-14T16:15:28;5.47;;;4.60;;
8327;SDS011;4201;48.754;8.864;2023-05-14T16:17:56;5.40;;;4.60;;
8327;SDS011;4201;48.754;8.864;2023-05-14T16:20:22;4.90;;;3.80;;
8327;SDS011;4201;48.754;8.864;2023-05-14T16:22:48;5.80;;;4.37;;
8327;SDS011;4201;48.754;8.864;2023-05-14T16:25:15;5.57;;;4.43;;
8327;SDS011;4201;48.754;8.864;2023-05-14T16:27:42;6.20;;;5.23;;
8327;SDS011;4201;48.754;8.864;2023-05-14T16:30:09;6.57;;;5.87;;
8327;SDS011;4201;48.754;8.864;2023-05-14T16:32:36;6.17;;;5.57;;
8327;SDS011;4201;48.754;8.864;2023-05-14T16:35:04;5.40;;;4.70;;
8327;SDS011;4201;48.754;8.864;2023-05-14T16:37:30;6.93;;;5.10;;
8327;SDS011;4201;48.754;8.864;2023-05-14T16:39:56;6.83;;;5.47;;
8327;SDS011;4201;48.754;8.864;2023-05-14T16:42:22;6.53;;;5.93;;
8327;SDS011;4201;48.754;8.864;2023-05-14T16:44:49;6.90;;;5.50;;
8327;SDS011;4201;48.754;8.864;2023-05-14T16:47:15;7.13;;;5.60;;
8327;SDS011;4201;48.754;8.864;2023-05-14T16:49:42;5.60;;;4.60;;
8327;SDS011;4201;48.754;8.864;2023-05-14T16:52:09;5.90;;;5.03;;
8327;SDS011;4201;48.754;8.864;2023-05-14T16:54:36;6.33;;;5.43;;
8327;SDS011;4201;48.754;8.864;2023-05-14T16:57:02;6.47;;;5.17;;
8327;SDS011;4201;48.754;8.864;2023-05-14T16:59:29;8.07;;;5.10;;
8327;SDS011;4201;48.754;8.864;2023-05-14T17:01:55;6.53;;;5.40;;
8327;SDS011;4201;48.754;8.864;2023-05-14T17:04:21;7.47;;;5.90;;
8327;SDS011;4201;48.754;8.864;2023-05-14T17:06:50;6.63;;;4.87;;
8327;SDS011;4201;48.754;8.864;2023-05-14T17:09:18;6.93;;;4.87;;
8327;SDS011;4201;48.754;8.864;2023-05-14T17:11:44;6.83;;;5.30;;
8327;SDS011;4201;48.754;8.864;2023-05-14T17:14:10;5.60;;;4.73;;
8327;SDS011;4201;48.754;8.864;2023-05-14T17:16:36;6.73;;;5.13;;
8327;SDS011;4201;48.754;8.864;2023-05-14T17:19:04;6.20;;;5.60;;
8327;SDS011;4201;48.754;8.864;2023-05-14T17:21:31;7.67;;;4.80;;
8327;SDS011;4201;48.754;8.864;2023-05-14T17:23:59;6.33;;;5.33;;
8327;SDS011;4201;48.754;8.864;2023-05-14T17:26:27;6.40;;;4.60;;
8327;SDS011;4201;48.754;8.864;2023-05-14T17:28:53;5.97;;;4.90;;
8327;SDS011;4201;48.754;8.864;2023-05-14T17:31:20;5.73;;;4.63;;
8327;SDS011;4201;48.754;8.864;2023-05-14T17:33:47;5.80;;;4.57;;
8327;SDS011;4201;48.754;8.864;2023-05-14T17:36:13;6.93;;;4.70;;
8327;SDS011;4201;48.754;8.864;2023-05-14T17:38:39;6.87;;;5.40;;
8327;SDS011;4201;48.754;8.864;2023-05-14T17:41:06;5.87;;;4.70;;
8327;SDS011;4201;48.754;8.864;2023-05-14T17:43:33;5.10;;;4.60;;
8327;SDS011;4201;48.754;8.864;2023-05-14T17:46:00;5.37;;;4.83;;
8327;SDS011;4201;48.754;8.864;2023-05-14T17:48:26;9.73;;;4.90;;
8327;SDS011;4201;48.754;8.864;2023-05-14T17:50:52;11.23;;;5.50;;
8327;SDS011;4201;48.754;8.864;2023-05-14T17:53:18;10.33;;;5.50;;
8327;SDS011;4201;48.754;8.864;2023-05-14T17:55:44;6.27;;;5.43;;
8327;SDS011;4201;48.754;8.864;2023-05-14T17:58:11;7.00;;;4.83;;
8327;SDS011;4201;48.754;8.864;2023-05-14T18:00:40;6.27;;;4.50;;
8327;SDS011;4201;48.754;8.864;2023-05-14T18:03:07;6.23;;;5.00;;
8327;SDS011;4201;48.754;8.864;2023-05-14T18:05:34;6.83;;;4.83;;
8327;SDS011;4201;48.754;8.864;2023-05-14T18:08:00;5.60;;;5.10;;
8327;SDS011;4201;48.754;8.864;2023-05-14T18:10:27;6.93;;;5.10;;
8327;SDS011;4201;48.754;8.864;2023-05-14T18:12:54;6.03;;;5.40;;
8327;SDS011;4201;48.754;8.864;2023-05-14T18:15:21;6.40;;;5.00;;
8327;SDS011;4201;48.754;8.864;2023-05-14T18:17:50;7.03;;;5.47;;
8327;SDS011;4201;48.754;8.864;2023-05-14T18:20:17;7.80;;;5.20;;
8327;SDS011;4201;48.754;8.864;2023-05-14T18:22:43;6.00;;;5.37;;
8327;SDS011;4201;48.754;8.864;2023-05-14T18:25:09;12.27;;;6.03;;
8327;SDS011;4201;48.754;8.864;2023-05-14T18:27:36;6.50;;;5.60;;
8327;SDS011;4201;48.754;8.864;2023-05-14T18:30:08;9.20;;;6.30;;
8327;SDS011;4201;48.754;8.864;2023-05-14T18:32:35;7.07;;;5.70;;
8327;SDS011;4201;48.754;8.864;2023-05-14T18:35:02;6.60;;;5.50;;
8327;SDS011;4201;48.754;8.864;2023-05-14T18:37:29;6.83;;;5.70;;
8327;SDS011;4201;48.754;8.864;2023-05-14T18:39:55;6.90;;;5.60;;
8327;SDS011;4201;48.754;8.864;2023-05-14T18:42:21;7.10;;;5.90;;
8327;SDS011;4201;48.754;8.864;2023-05-14T18:44:47;7.27;;;5.83;;
8327;SDS011;4201;48.754;8.864;2023-05-14T18:47:14;7.07;;;5.43;;
8327;SDS011;4201;48.754;8.864;2023-05-14T18:49:40;7.83;;;6.53;;
8327;SDS011;4201;48.754;8.864;2023-05-14T18:52:07;6.77;;;5.93;;
8327;SDS011;4201;48.754;8.864;2023-05-14T18:54:34;6.80;;;5.53;;
8327;SDS011;4201;48.754;8.864;2023-05-14T18:57:00;7.00;;;5.87;;
8327;SDS011;4201;48.754;8.864;2023-05-14T18:59:26;6.80;;;5.60;;
8327;SDS011;4201;48.754;8.864;2023-05-14T19:01:52;8.87;;;6.43;;
8327;SDS011;4201;48.754;8.864;2023-05-14T19:04:19;9.73;;;6.17;;
8327;SDS011;4201;48.754;8.864;2023-05-14T19:06:45;7.40;;;6.57;;
8327;SDS011;4201;48.754;8.864;2023-05-14T19:09:12;6.27;;;5.63;;
8327;SDS011;4201;48.754;8.864;2023-05-14T19:11:44;9.80;;;7.00;;
8327;SDS011;4201;48.754;8.864;2023-05-14T19:14:11;7.00;;;6.20;;
8327;SDS011;4201;48.754;8.864;2023-05-14T19:16:37;9.57;;;6.33;;
8327;SDS011;4201;48.754;8.864;2023-05-14T19:19:03;7.97;;;6.07;;
8327;SDS011;4201;48.754;8.864;2023-05-14T19:21:29;9.33;;;6.80;;
8327;SDS011;4201;48.754;8.864;2023-05-14T19:23:56;8.60;;;6.60;;
8327;SDS011;4201;48.754;8.864;2023-05-14T19:26:23;8.83;;;7.70;;
8327;SDS011;4201;48.754;8.864;2023-05-14T19:28:50;7.80;;;6.83;;
8327;SDS011;4201;48.754;8.864;2023-05-14T19:31:16;9.20;;;7.57;;
8327;SDS011;4201;48.754;8.864;2023-05-14T19:33:42;10.23;;;7.17;;
8327;SDS011;4201;48.754;8.864;2023-05-14T19:36:09;9.03;;;8.10;;
8327;SDS011;4201;48.754;8.864;2023-05-14T19:38:35;9.03;;;7.50;;
8327;SDS011;4201;48.754;8.864;2023-05-14T19:41:01;8.57;;;6.90;;
8327;SDS011;4201;48.754;8.864;2023-05-14T19:43:29;9.20;;;7.83;;
8327;SDS011;4201;48.754;8.864;2023-05-14T19:45:55;11.73;;;9.70;;
8327;SDS011;4201;48.754;8.864;2023-05-14T19:48:21;9.07;;;7.87;;
8327;SDS011;4201;48.754;8.864;2023-05-14T19:50:48;7.73;;;6.93;;
8327;SDS011;4201;48.754;8.864;2023-05-14T19:53:14;10.33;;;6.93;;
8327;SDS011;4201;48.754;8.864;2023-05-14T19:55:40;7.53;;;6.17;;
8327;SDS011;4201;48.754;8.864;2023-05-14T19:58:07;7.60;;;6.80;;
8327;SDS011;4201;48.754;8.864;2023-05-14T20:00:34;8.67;;;7.23;;
8327;SDS011;4201;48.754;8.864;2023-05-14T20:03:01;12.63;;;7.83;;
8327;SDS011;4201;48.754;8.864;2023-05-14T20:05:28;8.33;;;7.00;;
8327;SDS011;4201;48.754;8.864;2023-05-14T20:07:54;9.00;;;8.10;;
8327;SDS011;4201;48.754;8.864;2023-05-14T20:10:20;10.00;;;7.87;;
8327;SDS011;4201;48.754;8.864;2023-05-14T20:12:46;8.73;;;7.67;;
8327;SDS011;4201;48.754;8.864;2023-05-14T20:15:13;10.97;;;8.63;;
8327;SDS011;4201;48.754;8.864;2023-05-14T20:17:40;9.40;;;8.17;;
8327;SDS011;4201;48.754;8.864;2023-05-14T20:20:07;11.17;;;8.90;;
8327;SDS011;4201;48.754;8.864;2023-05-14T20:22:34;9.40;;;7.70;;
8327;SDS011;4201;48.754;8.864;2023-05-14T20:25:00;8.30;;;7.00;;
8327;SDS011;4201;48.754;8.864;2023-05-14T20:27:26;9.80;;;8.23;;
8327;SDS011;4201;48.754;8.864;2023-05-14T20:29:52;8.10;;;7.20;;
8327;SDS011;4201;48.754;8.864;2023-05-14T20:32:19;9.57;;;7.63;;
8327;SDS011;4201;48.754;8.864;2023-05-14T20:34:50;10.00;;;8.17;;
8327;SDS011;4201;48.754;8.864;2023-05-14T20:37:16;11.10;;;8.50;;
8327;SDS011;4201;48.754;8.864;2023-05-14T20:39:43;8.10;;;7.13;;
8327;SDS011;4201;48.754;8.864;2023-05-14T20:42:10;8.90;;;8.00;;
8327;SDS011;4201;48.754;8.864;2023-05-14T20:44:36;11.00;;;9.83;;
8327;SDS011;4201;48.754;8.864;2023-05-14T20:47:02;13.17;;;9.10;;
8327;SDS011;4201;48.754;8.864;2023-05-14T20:49:28;12.00;;;8.80;;
8327;SDS011;4201;48.754;8.864;2023-05-14T20:51:56;10.77;;;9.30;;
8327;SDS011;4201;48.754;8.864;2023-05-14T20:54:22;11.10;;;9.90;;
8327;SDS011;4201;48.754;8.864;2023-05-14T20:56:49;12.07;;;9.40;;
8327;SDS011;4201;48.754;8.864;2023-05-14T20:59:15;9.87;;;8.87;;
8327;SDS011;4201;48.754;8.864;2023-05-14T21:01:41;12.80;;;8.73;;
8327;SDS011;4201;48.754;8.864;2023-05-14T21:04:07;16.60;;;10.07;;